Time;durP1;ratioP1;P1;durP2;ratioP2;P2;SDS_P1;SDS_P2;PMS_P1;PMS_P2;Temp;Humidity;BMP_temperature;BMP_pressure;BME280_temperature;BME280_humidity;BME280_pressure;Samples;Min_cycle;Max_cycle;Signal;HPM_P1;HPM_P2
2022/06/29 00:00:07;;;;;;;6.00;4.53;;;;;;;20.04;76.67;99673.72;8456837;28;20056;-77
2022/06/29 00:04:28;;;;;;;8.18;4.35;;;;;;;20.03;76.67;99657.63;8420675;28;20158;-77
2022/06/29 00:08:29;;;;;;;9.82;4.85;;;;;;;20.00;77.10;99663.81;8480492;27;20055;-77
2022/06/29 00:12:30;;;;;;;6.90;4.68;;;;;;;19.95;77.34;99655.88;8463898;28;20047;-77
2022/06/29 00:16:31;;;;;;;6.53;4.85;;;;;;;19.93;77.44;99648.03;8446679;28;20108;-78
2022/06/29 00:20:32;;;;;;;6.82;4.47;;;;;;;19.89;77.61;99632.63;8465005;28;20070;-77
2022/06/29 00:24:34;;;;;;;7.95;4.75;;;;;;;19.83;78.12;99609.41;8466261;28;20067;-78
2022/06/29 00:28:35;;;;;;;7.00;4.72;;;;;;;19.73;78.21;99600.56;8457943;28;20434;-77
2022/06/29 00:32:37;;;;;;;9.65;5.32;;;;;;;19.61;79.09;99587.00;8453621;28;20476;-77
2022/06/29 00:36:38;;;;;;;6.80;4.60;;;;;;;19.49;79.81;99584.38;8466567;28;20053;-78
2022/06/29 00:40:40;;;;;;;6.68;5.00;;;;;;;19.38;80.61;99561.41;8466368;28;20044;-78
2022/06/29 00:44:41;;;;;;;7.38;4.75;;;;;;;19.29;81.04;99556.13;8451664;28;20051;-78
2022/06/29 00:48:44;;;;;;;9.52;5.47;;;;;;;19.22;81.46;99553.19;8453763;28;20483;-78
2022/06/29 00:52:45;;;;;;;7.35;5.05;;;;;;;19.19;81.82;99536.69;8465152;28;20047;-78
2022/06/29 00:56:46;;;;;;;7.28;5.45;;;;;;;19.13;82.33;99532.63;8466824;28;20555;-78
2022/06/29 01:00:47;;;;;;;7.70;5.80;;;;;;;19.08;82.78;99524.69;8454210;28;20039;-78
2022/06/29 01:04:49;;;;;;;8.98;5.88;;;;;;;19.06;83.55;99516.03;8464313;28;20130;-78
2022/06/29 01:08:50;;;;;;;8.80;6.35;;;;;;;18.99;83.98;99509.25;8461957;27;20058;-78
2022/06/29 01:12:51;;;;;;;7.25;5.82;;;;;;;18.97;84.17;99508.03;8452868;28;20047;-77
2022/06/29 01:16:53;;;;;;;8.88;6.07;;;;;;;18.91;84.17;99493.81;8432482;28;20051;-77
2022/06/29 01:20:53;;;;;;;7.32;5.60;;;;;;;18.91;84.06;99499.28;8463454;28;20131;-77
2022/06/29 01:24:55;;;;;;;8.07;5.53;;;;;;;18.91;84.28;99520.38;8448695;28;20456;-78
2022/06/29 01:28:55;;;;;;;7.22;5.70;;;;;;;18.90;84.11;99530.53;8453559;28;20124;-78
2022/06/29 01:32:57;;;;;;;6.95;6.00;;;;;;;18.88;84.22;99535.53;8449691;27;20044;-77
2022/06/29 01:36:59;;;;;;;7.82;5.63;;;;;;;18.87;84.19;99536.72;8464922;28;20512;-78
2022/06/29 01:41:00;;;;;;;9.48;6.03;;;;;;;18.87;84.21;99525.78;8464937;28;20046;-77
2022/06/29 01:45:01;;;;;;;7.00;5.68;;;;;;;18.88;84.18;99538.28;8457869;28;20067;-77
2022/06/29 01:49:02;;;;;;;9.25;6.13;;;;;;;18.89;84.14;99534.41;8454127;28;20047;-77
2022/06/29 01:53:03;;;;;;;8.43;5.65;;;;;;;18.91;83.87;99537.59;8460327;28;20040;-77
2022/06/29 01:57:04;;;;;;;7.43;5.85;;;;;;;18.96;83.53;99550.22;8461633;28;20058;-77
2022/06/29 02:01:05;;;;;;;8.90;5.70;;;;;;;18.93;83.99;99562.66;8456273;28;20127;-77
2022/06/29 02:05:06;;;;;;;6.20;5.57;;;;;;;18.91;84.09;99569.63;8457813;28;20358;-77
2022/06/29 02:09:07;;;;;;;7.57;6.05;;;;;;;18.93;83.90;99562.66;8457765;28;20463;-77
2022/06/29 02:13:08;;;;;;;7.57;5.00;;;;;;;18.97;83.54;99573.72;8445895;28;20055;-77
2022/06/29 02:17:09;;;;;;;9.70;5.63;;;;;;;18.96;83.92;99578.38;8443828;28;20043;-77
2022/06/29 02:21:10;;;;;;;9.77;5.47;;;;;;;18.98;83.71;99584.28;8444121;28;20044;-77
2022/06/29 02:25:11;;;;;;;6.60;5.38;;;;;;;19.04;83.48;99578.53;8438625;28;20048;-77
2022/06/29 02:29:12;;;;;;;14.15;6.80;;;;;;;19.05;83.04;99580.13;8433638;28;20534;-78
2022/06/29 02:37:33;;;;;;;9.98;6.00;;;;;;;19.08;82.96;99584.91;8456348;27;20048;-77
2022/06/29 02:41:34;;;;;;;8.25;5.82;;;;;;;19.09;82.89;99575.56;8435220;28;20075;-77
2022/06/29 02:45:35;;;;;;;8.40;6.22;;;;;;;19.07;82.90;99561.44;8456827;28;20044;-78
2022/06/29 02:49:36;;;;;;;7.97;6.22;;;;;;;19.05;82.89;99559.03;8462160;28;20142;-77
2022/06/29 02:53:37;;;;;;;8.93;5.82;;;;;;;19.03;83.34;99555.06;8449626;27;20495;-77
2022/06/29 02:57:38;;;;;;;9.68;6.05;;;;;;;18.97;83.51;99547.13;8453153;28;20047;-78
2022/06/29 03:01:39;;;;;;;7.90;6.45;;;;;;;18.98;83.79;99548.69;8448233;28;20073;-78
2022/06/29 03:05:40;;;;;;;11.05;6.07;;;;;;;18.98;83.94;99548.69;8459562;28;20067;-78
2022/06/29 03:09:41;;;;;;;9.93;6.55;;;;;;;18.98;83.66;99548.69;8453443;28;20503;-78
2022/06/29 03:13:41;;;;;;;10.32;6.35;;;;;;;19.02;83.52;99548.00;8449747;28;20144;-78
2022/06/29 03:17:42;;;;;;;10.38;6.60;;;;;;;19.04;83.54;99557.44;8458148;28;20040;-77
2022/06/29 03:21:43;;;;;;;9.15;6.32;;;;;;;18.99;83.74;99555.75;8455805;28;20044;-77
2022/06/29 03:25:44;;;;;;;10.52;6.90;;;;;;;18.98;83.61;99554.16;8450589;28;20044;-78
2022/06/29 03:29:45;;;;;;;9.93;6.60;;;;;;;18.95;84.16;99548.63;8446668;28;20090;-76
2022/06/29 03:33:46;;;;;;;9.65;7.20;;;;;;;18.92;84.44;99533.72;8439892;28;20047;-75
2022/06/29 03:37:47;;;;;;;8.13;7.07;;;;;;;18.90;84.36;99546.94;8443832;28;20067;-75
2022/06/29 03:41:48;;;;;;;12.55;8.65;;;;;;;18.92;84.34;99555.59;8450437;27;20048;-76
2022/06/29 03:45:49;;;;;;;12.10;7.57;;;;;;;18.93;84.28;99561.84;8448971;28;20040;-75
2022/06/29 03:49:51;;;;;;;10.27;7.75;;;;;;;18.94;84.33;99556.03;8445176;28;20040;-76
2022/06/29 03:53:52;;;;;;;10.15;7.35;;;;;;;18.97;84.21;99552.59;8455349;28;20398;-76
2022/06/29 03:57:53;;;;;;;12.05;8.40;;;;;;;19.02;84.08;99561.69;8455895;28;20108;-76
2022/06/29 04:01:54;;;;;;;9.98;7.53;;;;;;;19.06;83.81;99565.31;8431891;28;20108;-77
2022/06/29 04:05:55;;;;;;;9.90;7.75;;;;;;;19.04;84.35;99557.44;8435871;28;20040;-77
2022/06/29 04:09:59;;;;;;;12.10;7.80;;;;;;;19.10;83.95;99561.50;8448897;28;20470;-77
2022/06/29 04:14:00;;;;;;;11.00;8.80;;;;;;;19.13;83.78;99560.81;8427565;28;20093;-77
2022/06/29 04:18:02;;;;;;;14.57;8.98;;;;;;;19.20;83.71;99554.69;8445321;28;20481;-77
2022/06/29 04:22:03;;;;;;;12.13;8.48;;;;;;;19.26;83.65;99553.28;8434253;28;20085;-77
2022/06/29 04:26:04;;;;;;;11.93;8.85;;;;;;;19.33;83.44;99537.03;8434060;28;20055;-77
2022/06/29 04:30:06;;;;;;;11.70;7.60;;;;;;;19.40;83.25;99542.66;8439265;28;20100;-77
2022/06/29 04:34:07;;;;;;;11.55;7.85;;;;;;;19.47;82.85;99531.88;8436589;28;20173;-77
2022/06/29 04:38:08;;;;;;;14.77;9.05;;;;;;;19.45;82.97;99530.66;8433877;28;20101;-78
2022/06/29 04:42:08;;;;;;;12.90;8.65;;;;;;;19.48;82.98;99533.47;8431287;28;20070;-77
2022/06/29 04:46:28;;;;;;;13.38;8.35;;;;;;;19.48;83.09;99511.56;8439039;28;20117;-77
2022/06/29 04:50:29;;;;;;;19.48;8.65;;;;;;;19.55;82.92;99516.41;8430884;28;20044;-77
2022/06/29 04:54:30;;;;;;;14.48;8.18;;;;;;;19.62;82.33;99517.34;8436069;28;20050;-77
2022/06/29 04:58:33;;;;;;;13.32;7.55;;;;;;;19.68;81.98;99526.88;8435253;28;20468;-77
2022/06/29 05:02:34;;;;;;;8.82;7.40;;;;;;;19.71;81.73;99520.69;8445274;28;20040;-78
2022/06/29 05:06:35;;;;;;;10.77;7.38;;;;;;;19.75;81.63;99526.25;8438582;28;20135;-78
2022/06/29 05:10:36;;;;;;;13.68;7.03;;;;;;;19.79;81.47;99527.91;8438673;28;20044;-78
2022/06/29 05:14:37;;;;;;;8.75;6.82;;;;;;;19.90;81.03;99527.31;8440204;28;20542;-78
2022/06/29 05:18:38;;;;;;;12.93;6.78;;;;;;;19.93;80.97;99532.09;8446014;28;20059;-78
2022/06/29 05:22:39;;;;;;;11.23;6.47;;;;;;;19.99;80.84;99530.63;8449791;28;20052;-78
2022/06/29 05:26:42;;;;;;;9.45;6.82;;;;;;;20.02;80.60;99538.16;8437227;28;20487;-78
2022/06/29 05:30:43;;;;;;;10.90;7.28;;;;;;;20.06;80.14;99541.75;8445680;28;20135;-78
2022/06/29 05:34:44;;;;;;;10.63;7.07;;;;;;;20.10;80.08;99537.94;8463754;28;20415;-78
2022/06/29 05:38:45;;;;;;;12.23;6.85;;;;;;;20.15;80.10;99534.09;8463615;28;20059;-78
2022/06/29 05:42:46;;;;;;;10.10;6.40;;;;;;;20.23;79.51;99535.84;8464860;28;20054;-78
2022/06/29 05:46:47;;;;;;;11.63;6.43;;;;;;;20.33;79.10;99540.75;8464877;28;20043;-77
2022/06/29 05:50:48;;;;;;;10.32;7.03;;;;;;;20.35;79.14;99543.94;8464183;28;20044;-77
2022/06/29 05:54:49;;;;;;;9.70;6.90;;;;;;;20.42;78.54;99544.06;8463899;28;21318;-78
2022/06/29 05:58:50;;;;;;;12.95;6.53;;;;;;;20.51;78.47;99544.66;8462519;28;20071;-78
2022/06/29 06:02:52;;;;;;;11.05;7.25;;;;;;;20.58;78.28;99547.50;8457040;28;20130;-78
2022/06/29 06:06:53;;;;;;;11.32;7.10;;;;;;;20.67;77.92;99532.75;8453692;28;20487;-78
2022/06/29 06:10:54;;;;;;;12.05;7.35;;;;;;;20.72;77.68;99529.72;8460823;28;20090;-78
2022/06/29 06:14:57;;;;;;;10.85;6.65;;;;;;;20.73;77.88;99523.06;8454357;28;20050;-78
2022/06/29 06:18:58;;;;;;;9.55;6.90;;;;;;;20.80;77.71;99531.41;8464729;28;20415;-77
2022/06/29 06:22:59;;;;;;;8.82;7.00;;;;;;;20.97;77.45;99533.66;8464027;28;20065;-77
2022/06/29 06:26:59;;;;;;;13.27;7.10;;;;;;;21.12;76.98;99532.72;8464125;28;20088;-78
2022/06/29 06:31:01;;;;;;;10.05;6.38;;;;;;;21.23;76.45;99521.94;8459933;28;20506;-77
2022/06/29 06:35:02;;;;;;;14.38;7.70;;;;;;;21.30;76.36;99522.84;8463939;28;20043;-78
2022/06/29 06:39:03;;;;;;;11.77;7.43;;;;;;;21.33;76.21;99511.13;8463994;28;20047;-78
2022/06/29 06:43:04;;;;;;;8.80;7.00;;;;;;;21.41;75.86;99518.28;8461558;28;20048;-78
2022/06/29 06:47:05;;;;;;;10.18;7.00;;;;;;;21.48;75.67;99507.41;8462840;28;20065;-78
2022/06/29 06:51:06;;;;;;;8.23;7.03;;;;;;;21.63;75.26;99502.88;8462304;28;20079;-78
2022/06/29 06:55:07;;;;;;;11.07;7.63;;;;;;;21.80;74.86;99496.03;8462901;28;20433;-78
2022/06/29 06:59:08;;;;;;;10.15;6.90;;;;;;;21.91;74.64;99491.47;8460190;28;20082;-78
2022/06/29 07:03:09;;;;;;;11.63;7.15;;;;;;;22.05;74.37;99491.66;8462447;28;20054;-78
2022/06/29 07:07:10;;;;;;;11.00;6.70;;;;;;;22.18;74.08;99494.94;8459604;28;20048;-78
2022/06/29 07:11:13;;;;;;;9.48;7.50;;;;;;;22.33;73.18;99497.47;8460021;28;20196;-78
2022/06/29 07:15:13;;;;;;;15.95;7.28;;;;;;;22.45;73.17;99492.88;8462117;28;20441;-78
2022/06/29 07:19:15;;;;;;;12.68;8.27;;;;;;;22.53;72.61;99489.00;8461979;28;20055;-78
2022/06/29 07:23:17;;;;;;;10.55;7.97;;;;;;;22.71;72.34;99496.28;8462365;28;20035;-78
2022/06/29 07:27:19;;;;;;;11.70;7.88;;;;;;;22.73;72.26;99482.16;8461902;28;20460;-78
2022/06/29 07:31:20;;;;;;;15.73;8.30;;;;;;;22.68;72.08;99479.72;8461564;28;20134;-78
2022/06/29 07:35:21;;;;;;;14.00;8.30;;;;;;;22.73;71.71;99493.16;8447847;28;20044;-78
2022/06/29 07:39:22;;;;;;;15.60;8.48;;;;;;;22.74;71.48;99497.47;8461392;28;20035;-78
2022/06/29 07:43:23;;;;;;;11.05;8.15;;;;;;;22.70;71.27;99499.38;8460786;28;20063;-77
2022/06/29 07:47:24;;;;;;;11.95;8.15;;;;;;;22.76;71.36;99497.91;8456628;28;20139;-78
2022/06/29 07:51:25;;;;;;;12.57;7.97;;;;;;;22.85;71.04;99498.34;8445624;28;20077;-78
2022/06/29 07:55:26;;;;;;;11.40;8.32;;;;;;;22.96;70.91;99490.97;8447439;28;20491;-78
2022/06/29 07:59:27;;;;;;;13.50;8.60;;;;;;;23.08;69.98;99487.94;8440930;28;20077;-79
2022/06/29 08:03:28;;;;;;;11.68;8.35;;;;;;;23.24;69.81;99489.59;8450777;28;20441;-78
2022/06/29 08:07:29;;;;;;;12.70;8.85;;;;;;;23.43;69.39;99487.34;8430186;28;20126;-78
2022/06/29 08:11:30;;;;;;;10.55;8.35;;;;;;;23.53;69.47;99507.91;8427905;28;20044;-78
2022/06/29 08:15:32;;;;;;;12.85;8.77;;;;;;;23.47;69.40;99509.47;8441289;28;20074;-78
2022/06/29 08:19:34;;;;;;;10.70;8.13;;;;;;;23.30;69.79;99493.56;8433253;28;20046;-78
2022/06/29 08:23:35;;;;;;;10.82;7.40;;;;;;;23.23;69.97;99496.28;8453510;28;20052;-78
2022/06/29 08:27:36;;;;;;;10.20;8.23;;;;;;;23.21;69.92;99495.88;8434576;28;20072;-78
2022/06/29 08:31:38;;;;;;;10.02;7.65;;;;;;;23.16;69.68;99484.03;8449300;28;20121;-77
2022/06/29 08:35:39;;;;;;;11.23;7.75;;;;;;;23.06;69.99;99490.25;8446435;28;20048;-78
2022/06/29 08:39:40;;;;;;;12.23;8.63;;;;;;;22.89;70.40;99490.94;8493232;27;20044;-77
2022/06/29 08:43:42;;;;;;;12.57;8.30;;;;;;;22.78;70.85;99468.03;8467094;28;20055;-77
2022/06/29 08:47:43;;;;;;;11.25;7.60;;;;;;;22.68;71.54;99463.19;8467987;28;20077;-78
2022/06/29 08:51:45;;;;;;;10.52;7.72;;;;;;;22.60;71.66;99445.03;8465662;28;20063;-78
2022/06/29 08:55:52;;;;;;;11.80;8.18;;;;;;;22.51;72.21;99425.31;8465983;28;20131;-77
2022/06/29 08:59:54;;;;;;;9.65;7.28;;;;;;;22.43;72.33;99412.63;8456197;28;20099;-78
2022/06/29 09:03:55;;;;;;;16.95;7.78;;;;;;;22.38;72.93;99421.25;8455809;28;20043;-77
2022/06/29 09:07:56;;;;;;;17.58;8.32;;;;;;;22.32;73.56;99446.34;8466848;28;20058;-77
2022/06/29 09:11:57;;;;;;;13.32;8.05;;;;;;;22.22;74.31;99441.53;8467195;28;20059;-77
2022/06/29 09:15:59;;;;;;;15.73;9.02;;;;;;;22.19;74.97;99442.31;8468208;28;20446;-78
2022/06/29 09:20:02;;;;;;;13.60;8.63;;;;;;;22.17;76.28;99439.13;8462877;28;20575;-77
2022/06/29 09:24:13;;;;;;;11.70;7.50;;;;;;;22.26;76.75;99425.84;8462346;28;20063;-77
2022/06/29 09:28:29;;;;;;;11.13;8.25;;;;;;;22.58;76.11;99433.59;8449930;28;20149;-77
2022/06/29 09:32:31;;;;;;;9.82;8.20;;;;;;;22.98;74.64;99455.59;8461368;28;20121;-77
2022/06/29 09:36:32;;;;;;;11.25;7.60;;;;;;;23.47;73.58;99465.38;8462408;28;20522;-77
2022/06/29 09:40:35;;;;;;;12.30;7.85;;;;;;;23.69;72.16;99478.06;8462008;28;20058;-77
2022/06/29 09:44:37;;;;;;;11.07;7.97;;;;;;;23.81;71.83;99496.22;8462124;28;20051;-77
2022/06/29 09:48:39;;;;;;;11.98;8.23;;;;;;;23.58;71.91;99493.78;8459644;28;20130;-78
2022/06/29 09:52:43;;;;;;;8.93;7.55;;;;;;;23.34;72.98;99477.84;8464113;28;20048;-77
2022/06/29 09:56:50;;;;;;;10.77;8.27;;;;;;;23.04;73.62;99467.84;8454219;28;20043;-78
2022/06/29 10:05:18;;;;;;;15.98;10.10;;;;;;;22.74;76.45;99436.91;8440271;28;20078;-77
2022/06/29 10:09:19;;;;;;;15.30;9.23;;;;;;;22.49;78.62;99405.63;8462488;28;20584;-76
2022/06/29 10:13:39;;;;;;;17.58;9.40;;;;;;;22.48;80.21;99420.53;8435731;28;20040;-78
2022/06/29 10:17:46;;;;;;;12.40;9.80;;;;;;;22.44;80.71;99427.97;8457948;28;20057;-78
2022/06/29 10:21:47;;;;;;;13.52;10.45;;;;;;;22.51;81.14;99448.09;8459810;27;20036;-78
2022/06/29 10:25:48;;;;;;;23.10;11.05;;;;;;;22.49;82.06;99449.66;8445212;28;20051;-78
2022/06/29 10:29:49;;;;;;;14.05;10.48;;;;;;;22.52;82.78;99438.69;8441853;28;20464;-79
2022/06/29 10:33:50;;;;;;;17.88;10.43;;;;;;;22.73;82.74;99435.34;8450565;28;20051;-79
2022/06/29 10:37:53;;;;;;;13.55;9.38;;;;;;;23.02;81.69;99434.38;8462167;28;20043;-78
2022/06/29 10:46:14;;;;;;;13.48;10.13;;;;;;;24.10;78.56;99425.41;8463438;28;20043;-78
2022/06/29 10:50:22;;;;;;;16.10;10.65;;;;;;;24.92;77.76;99421.53;8462879;28;20048;-78
2022/06/29 10:54:23;;;;;;;13.95;11.27;;;;;;;25.49;75.52;99426.91;8463185;28;20048;-79
2022/06/29 10:58:24;;;;;;;15.15;11.98;;;;;;;25.33;73.64;99419.06;8457457;28;20388;-78
2022/06/29 11:02:25;;;;;;;11.65;10.30;;;;;;;25.29;72.74;99411.97;8445822;28;20040;-79
2022/06/29 11:15:41;;;;;;;12.30;10.85;;;;;;;25.48;71.47;99392.16;8377672;28;20074;-79
2022/06/29 11:19:42;;;;;;;15.50;10.10;;;;;;;25.50;68.85;99393.31;8391465;28;20052;-78
2022/06/29 11:23:43;;;;;;;16.35;11.60;;;;;;;25.33;69.39;99396.94;8377411;28;20053;-78
2022/06/29 11:27:44;;;;;;;14.20;11.23;;;;;;;25.08;69.74;99390.72;8391319;28;20127;-79
2022/06/29 11:32:00;;;;;;;14.63;11.90;;;;;;;25.04;70.22;99389.94;8391578;28;20282;-79
2022/06/29 11:36:06;;;;;;;19.02;11.65;;;;;;;25.72;67.28;99374.69;8372728;28;20619;-79
2022/06/29 11:40:08;;;;;;;15.32;11.63;;;;;;;26.06;66.08;99372.13;8367172;28;20056;-79
2022/06/29 11:44:08;;;;;;;14.13;11.93;;;;;;;25.67;66.72;99371.56;8388239;28;20422;-79
2022/06/29 11:48:23;;;;;;;15.27;11.90;;;;;;;25.95;66.46;99368.63;8450045;28;20283;-79
2022/06/29 11:52:36;;;;;;;13.27;10.35;;;;;;;26.21;64.96;99368.03;8456798;28;20507;-80
2022/06/29 11:56:37;;;;;;;11.35;9.43;;;;;;;26.35;64.72;99373.50;8457597;28;20044;-80
2022/06/29 12:00:39;;;;;;;13.35;10.25;;;;;;;26.35;64.24;99379.03;8457446;28;20074;-80
2022/06/29 12:04:42;;;;;;;16.63;9.65;;;;;;;26.26;64.28;99389.78;8467346;28;20460;-79
2022/06/29 12:08:43;;;;;;;12.05;9.55;;;;;;;26.65;63.18;99385.91;8469134;28;20582;-79
2022/06/29 12:12:44;;;;;;;14.60;10.27;;;;;;;26.76;61.14;99386.59;8468762;28;20481;-79
2022/06/29 12:16:44;;;;;;;14.35;10.45;;;;;;;26.46;61.63;99368.66;8468601;27;20054;-80
2022/06/29 12:20:46;;;;;;;12.52;9.50;;;;;;;26.71;60.53;99367.63;8465153;28;20040;-80
2022/06/29 12:24:47;;;;;;;10.43;8.52;;;;;;;26.97;60.17;99380.84;8470333;27;20043;-79
2022/06/29 12:28:48;;;;;;;15.57;8.90;;;;;;;27.43;59.75;99379.56;8446361;27;20549;-78
2022/06/29 12:32:49;;;;;;;10.65;8.30;;;;;;;27.36;59.55;99385.19;8450639;28;20047;-79
2022/06/29 12:37:10;;;;;;;13.05;8.30;;;;;;;27.74;57.58;99372.81;8455489;28;20418;-79
2022/06/29 12:41:11;;;;;;;12.05;8.40;;;;;;;28.22;57.24;99374.53;8433569;28;20138;-79
2022/06/29 12:45:12;;;;;;;13.88;9.45;;;;;;;28.30;56.45;99364.88;8456652;27;20047;-80
2022/06/29 12:49:13;;;;;;;12.63;8.45;;;;;;;27.87;57.54;99382.16;8437295;28;20552;-80
2022/06/29 12:53:14;;;;;;;12.55;8.77;;;;;;;27.57;57.55;99384.94;8405630;28;20056;-79
2022/06/29 12:57:18;;;;;;;9.30;8.32;;;;;;;27.35;58.36;99394.69;8441826;28;20067;-80
2022/06/29 13:01:20;;;;;;;10.73;7.95;;;;;;;27.24;58.79;99390.06;8425969;28;20051;-79
2022/06/29 13:05:21;;;;;;;10.05;8.27;;;;;;;27.15;59.23;99387.00;8424638;28;20040;-79
2022/06/29 13:09:23;;;;;;;8.15;7.35;;;;;;;27.02;59.41;99391.50;8449117;27;20470;-80
2022/06/29 13:13:24;;;;;;;9.77;7.55;;;;;;;26.84;59.50;99388.09;8441235;28;20120;-80
2022/06/29 13:17:25;;;;;;;10.07;8.00;;;;;;;26.80;59.28;99381.81;8437215;28;20044;-80
2022/06/29 13:21:26;;;;;;;9.07;7.45;;;;;;;26.76;59.47;99378.28;8435950;28;20048;-80
2022/06/29 13:25:27;;;;;;;11.15;8.18;;;;;;;26.70;59.59;99371.63;8455476;28;20047;-80
2022/06/29 13:29:28;;;;;;;9.15;7.85;;;;;;;26.68;59.42;99374.00;8445881;27;20137;-80
2022/06/29 13:33:30;;;;;;;9.18;7.10;;;;;;;26.67;59.33;99361.34;8399344;28;20065;-79
2022/06/29 13:37:31;;;;;;;10.20;7.88;;;;;;;26.78;57.92;99362.03;8446367;28;20088;-80
2022/06/29 13:41:32;;;;;;;10.43;7.40;;;;;;;26.82;58.32;99363.56;8464668;28;20042;-80
2022/06/29 13:45:33;;;;;;;8.40;7.50;;;;;;;26.59;59.10;99360.63;8451068;28;20406;-79
2022/06/29 13:49:35;;;;;;;8.85;7.95;;;;;;;26.32;59.75;99356.91;8456461;28;20044;-80
2022/06/29 13:53:37;;;;;;;8.50;7.50;;;;;;;26.22;60.22;99364.13;8449518;28;20422;-80
2022/06/29 13:57:40;;;;;;;10.27;7.55;;;;;;;26.32;60.66;99357.72;8452727;28;20388;-80
2022/06/29 14:01:41;;;;;;;9.68;7.55;;;;;;;26.43;59.61;99358.41;8451084;28;20449;-80
2022/06/29 14:05:43;;;;;;;10.43;8.20;;;;;;;26.48;59.79;99355.19;8460874;28;20116;-80
2022/06/29 14:09:44;;;;;;;11.60;7.80;;;;;;;26.52;59.27;99346.06;8459237;28;20043;-78
2022/06/29 14:13:45;;;;;;;13.25;8.13;;;;;;;26.53;59.00;99345.66;8426389;28;20055;-79
2022/06/29 14:17:46;;;;;;;12.00;8.55;;;;;;;26.46;58.66;99340.97;8459594;28;20453;-79
2022/06/29 14:21:47;;;;;;;13.40;8.18;;;;;;;26.46;59.24;99318.81;8460252;28;20151;-79
2022/06/29 14:25:50;;;;;;;15.57;8.13;;;;;;;26.60;58.71;99306.00;8444129;28;20051;-79
2022/06/29 14:29:52;;;;;;;10.45;7.43;;;;;;;26.93;57.47;99280.34;8459007;28;20043;-78
2022/06/29 14:33:52;;;;;;;8.82;7.07;;;;;;;27.04;57.09;99280.22;8459779;28;20044;-78
2022/06/29 14:37:54;;;;;;;11.38;8.23;;;;;;;26.81;57.29;99267.00;8421875;28;20071;-79
2022/06/29 14:41:55;;;;;;;9.85;6.93;;;;;;;26.73;57.38;99258.00;8463648;28;20411;-78
2022/06/29 14:45:56;;;;;;;10.95;7.45;;;;;;;26.63;56.57;99294.91;8453453;28;20044;-78
2022/06/29 14:49:57;;;;;;;10.00;7.25;;;;;;;26.36;56.93;99297.53;8466380;28;20047;-78
2022/06/29 14:53:59;;;;;;;9.23;6.95;;;;;;;26.09;57.51;99299.34;8456932;28;20048;-78
2022/06/29 14:58:00;;;;;;;9.48;7.20;;;;;;;25.92;58.88;99322.38;8444617;28;20567;-78
2022/06/29 15:02:01;;;;;;;10.68;7.85;;;;;;;25.75;59.23;99312.25;8445093;28;20410;-77
2022/06/29 15:06:02;;;;;;;9.57;6.72;;;;;;;25.59;59.43;99294.16;8416483;28;20069;-79
2022/06/29 15:10:04;;;;;;;9.73;7.10;;;;;;;25.60;59.70;99268.06;8440561;28;20499;-78
2022/06/29 15:14:05;;;;;;;9.32;7.00;;;;;;;25.68;59.46;99273.56;8459178;27;20083;-79
2022/06/29 15:18:06;;;;;;;10.25;7.10;;;;;;;25.75;59.74;99259.69;8437377;28;20047;-79
2022/06/29 15:22:07;;;;;;;7.75;6.95;;;;;;;25.82;59.22;99251.31;8438657;28;20036;-78
2022/06/29 15:26:08;;;;;;;10.38;6.53;;;;;;;26.03;59.14;99231.78;8444524;28;20059;-79
2022/06/29 15:30:09;;;;;;;8.70;7.13;;;;;;;26.17;58.66;99228.91;8441985;28;20538;-78
2022/06/29 15:38:48;;;;;;;10.90;7.00;;;;;;;26.30;57.83;99254.88;8458838;28;20456;-78
2022/06/29 15:42:50;;;;;;;10.13;6.82;;;;;;;26.21;57.52;99257.31;8434115;28;20047;-78
2022/06/29 15:46:51;;;;;;;9.48;6.85;;;;;;;26.24;57.95;99256.53;8455854;28;20088;-79
2022/06/29 15:50:52;;;;;;;12.27;6.65;;;;;;;26.17;57.71;99250.25;8445002;28;20138;-79
2022/06/29 15:59:13;;;;;;;9.55;6.25;;;;;;;25.97;58.37;99230.63;8454877;28;20048;-79
2022/06/29 16:03:15;;;;;;;13.60;6.35;;;;;;;25.88;58.25;99227.56;8461614;28;20055;-80
2022/06/29 16:07:16;;;;;;;10.77;7.13;;;;;;;25.76;58.59;99234.38;8443200;28;20040;-78
2022/06/29 16:11:18;;;;;;;8.93;6.65;;;;;;;25.66;58.72;99232.47;8441722;28;20063;-77
2022/06/29 16:15:19;;;;;;;8.25;6.15;;;;;;;25.59;59.03;99216.72;8462728;28;20442;-78
2022/06/29 16:19:20;;;;;;;10.52;6.47;;;;;;;25.51;59.29;99198.59;8444645;28;20423;-78
2022/06/29 16:23:21;;;;;;;12.48;6.85;;;;;;;25.51;59.14;99198.59;8435877;28;20048;-77
2022/06/29 16:27:22;;;;;;;7.00;5.95;;;;;;;25.51;59.15;99193.06;8445627;28;20043;-78
2022/06/29 16:31:23;;;;;;;10.05;6.47;;;;;;;25.52;59.28;99183.56;8447349;28;20059;-78
2022/06/29 16:35:25;;;;;;;9.90;6.18;;;;;;;25.54;59.60;99197.75;8455666;28;20032;-79
2022/06/29 16:39:26;;;;;;;9.98;6.50;;;;;;;25.50;59.73;99180.41;8459498;28;20048;-79
2022/06/29 16:43:27;;;;;;;9.57;6.20;;;;;;;25.42;59.40;99156.00;8461760;28;20050;-78
2022/06/29 16:47:29;;;;;;;9.60;6.80;;;;;;;25.33;59.70;99169.50;8456454;28;20103;-79
2022/06/29 16:51:31;;;;;;;9.25;6.03;;;;;;;25.28;60.13;99184.53;8463850;28;20043;-78
2022/06/29 16:55:32;;;;;;;10.02;6.00;;;;;;;25.26;60.22;99181.41;8465215;27;20159;-79
2022/06/29 16:59:33;;;;;;;10.82;6.32;;;;;;;25.23;60.07;99182.19;8456893;28;20101;-79
2022/06/29 17:03:34;;;;;;;8.93;6.40;;;;;;;25.19;60.53;99175.91;8438135;28;20094;-78
2022/06/29 17:07:35;;;;;;;8.63;6.22;;;;;;;25.08;61.21;99159.38;8466461;28;20463;-77
2022/06/29 17:11:36;;;;;;;10.40;6.00;;;;;;;24.92;62.17;99155.53;8454150;27;20500;-80
2022/06/29 17:15:37;;;;;;;7.03;6.00;;;;;;;24.83;62.36;99137.41;8456878;28;20494;-77
2022/06/29 17:19:38;;;;;;;8.98;6.30;;;;;;;24.75;62.63;99133.09;8447865;28;20055;-78
2022/06/29 17:23:39;;;;;;;11.38;6.22;;;;;;;24.72;62.33;99142.19;8456060;28;20044;-79
2022/06/29 17:27:44;;;;;;;7.53;5.70;;;;;;;24.73;62.25;99154.81;8463774;28;20048;-79
2022/06/29 17:31:48;;;;;;;7.55;6.00;;;;;;;24.75;62.23;99152.44;8464751;28;20077;-79
2022/06/29 17:35:50;;;;;;;7.55;5.72;;;;;;;24.75;61.99;99169.00;8444119;28;20430;-79
2022/06/29 17:39:51;;;;;;;8.95;6.28;;;;;;;24.70;62.53;99183.22;8461366;27;20350;-79
2022/06/29 17:43:52;;;;;;;8.95;5.80;;;;;;;24.66;62.85;99174.19;8451322;28;20035;-79
2022/06/29 17:47:52;;;;;;;8.32;6.22;;;;;;;24.58;63.20;99175.41;8464686;28;20706;-79
2022/06/29 17:51:54;;;;;;;9.35;6.13;;;;;;;24.54;63.12;99191.19;8465539;28;20048;-79
2022/06/29 17:55:55;;;;;;;8.65;6.20;;;;;;;24.49;63.20;99188.84;8465572;28;20100;-79
2022/06/29 17:59:56;;;;;;;7.05;6.10;;;;;;;24.43;63.76;99190.44;8452090;28;20120;-78
2022/06/29 18:03:57;;;;;;;8.88;6.60;;;;;;;24.37;63.82;99181.78;8495597;27;20096;-79
2022/06/29 18:07:58;;;;;;;9.70;6.25;;;;;;;24.29;64.46;99187.72;8456368;28;20104;-79
2022/06/29 18:11:59;;;;;;;10.35;6.65;;;;;;;24.26;64.56;99213.34;8447587;28;20403;-79
2022/06/29 18:16:00;;;;;;;8.88;5.90;;;;;;;24.18;64.78;99220.06;8463274;28;20059;-79
2022/06/29 18:20:03;;;;;;;10.27;5.82;;;;;;;24.14;65.02;99224.78;8464528;28;20043;-79
2022/06/29 18:24:05;;;;;;;13.10;6.95;;;;;;;24.07;65.40;99224.78;8462695;28;20054;-79
2022/06/29 18:28:06;;;;;;;10.90;6.70;;;;;;;24.02;65.44;99237.00;8447797;28;20409;-79
2022/06/29 18:32:07;;;;;;;11.98;6.80;;;;;;;23.97;66.23;99229.91;8434810;28;20046;-79
2022/06/29 18:36:09;;;;;;;12.38;6.40;;;;;;;23.90;66.93;99229.91;8456222;28;20510;-79
2022/06/29 18:40:11;;;;;;;9.23;6.20;;;;;;;23.79;67.03;99207.09;8463523;28;20483;-78
2022/06/29 18:44:12;;;;;;;9.82;6.38;;;;;;;23.69;67.38;99202.31;8386090;28;20036;-79
2022/06/29 18:48:13;;;;;;;6.45;5.75;;;;;;;23.62;68.13;99202.34;8457590;28;20086;-79
2022/06/29 18:52:14;;;;;;;8.95;6.20;;;;;;;23.53;68.50;99190.91;8459398;28;20051;-79
2022/06/29 18:56:15;;;;;;;8.82;6.55;;;;;;;23.41;68.78;99185.75;8444002;28;20403;-79
2022/06/29 19:00:17;;;;;;;13.55;6.55;;;;;;;23.31;68.95;99175.53;8458101;28;20047;-79
2022/06/29 19:04:18;;;;;;;12.60;8.25;;;;;;;23.17;69.20;99166.03;8457778;28;20048;-79
2022/06/29 19:08:19;;;;;;;18.20;10.13;;;;;;;23.06;69.50;99131.38;8450230;28;20131;-80
2022/06/29 19:12:21;;;;;;;15.32;8.52;;;;;;;22.96;69.84;99127.44;8449676;27;20131;-80
2022/06/29 19:16:21;;;;;;;16.10;8.52;;;;;;;22.88;69.92;99112.09;8468268;27;20043;-80